• Join FlightAware (Why Join?)
  • Login
  • US Flag 
04:32PM EDT


 

Airport Tracker/Info


-or-


 

Live Flight TrackerFlight Track Log ✈ N1BN ✈ 18-Jul-2013 ✈ PAJN / JNU - KSJC

Flight Track Log - Related Links

Times and Time Zones

All times are in EDT time to prevent confusion due to time zone crossing. See the N1BN flight status page for this flight to view local times or setup timezone preferences in your user account.

Time Position Orientation Groundspeed Altitude Reporting Facility
EDT Latitude Longitude Course Direction KTS MPH feet Rate Location/Type
10:23PM 58.3500 -134.7000 155° Southeast 230 265 4,100  Level Anchorage Center
10:24PM 58.3500 -134.8333 270° West 270 311 8,200 4,200 Climbing Anchorage Center
10:25PM 58.3333 -134.9667 257° West 300 345 12,600 3,420 Climbing Anchorage Center
10:26PM 58.2500 -134.9500 174° South 330 380 15,100 2,400 Climbing Anchorage Center
10:27PM 58.0016 -134.3866 155° Southeast  Level FlightAware Approximate
10:27PM 58.1500 -134.8333 148° Southeast 410 472 17,500  Level Anchorage Center
10:28PM 57.8911 -134.2886 155° Southeast  Level FlightAware Approximate
10:28PM 58.0500 -134.7167 148° Southeast 440 506 20,000  Level Anchorage Center
10:29PM 57.9333 -134.6000 152° Southeast 460 529 23,200 2,700 Climbing Anchorage Center
10:31PM 57.7000 -134.3500 150° Southeast 480 552 28,300 2,340 Climbing Anchorage Center
10:32PM 57.5833 -134.2333 152° Southeast 500 575 30,400 2,340 Climbing Anchorage Center
10:33PM 57.4667 -134.1000 148° Southeast 500 575 33,100 2,520 Climbing Anchorage Center
10:34PM 57.3333 -133.9667 152° Southeast 490 564 35,500 2,220 Climbing Anchorage Center
10:35PM 57.2167 -133.8500 152° Southeast 490 564 37,600 1,980 Climbing Anchorage Center
10:36PM 57.1000 -133.7167 148° Southeast 480 552 39,600 1,680 Climbing Anchorage Center
10:37PM 56.9833 -133.6000 151° Southeast 490 564 41,000 660 Climbing Anchorage Center
10:38PM 56.8667 -133.4833 151° Southeast 490 564 41,000  Level Anchorage Center
10:39PM 56.7500 -133.3667 151° Southeast 490 564 41,000  Level Anchorage Center
10:40PM 56.6167 -133.2333 151° Southeast 510 587 41,000  Level Anchorage Center
10:41PM 56.5000 -133.1167 151° Southeast 500 575 41,000  Level Anchorage Center
10:42PM 56.3833 -132.9833 148° Southeast 510 587 41,000  Level Anchorage Center
10:43PM 56.2500 -132.8500 151° Southeast 510 587 41,000  Level Anchorage Center
10:44PM 56.1333 -132.7167 147° Southeast 510 587 41,000  Level Anchorage Center
10:45PM 56.0167 -132.5833 147° Southeast 510 587 41,000  Level Anchorage Center
10:46PM 55.9000 -132.4667 151° Southeast 500 575 41,000  Level Anchorage Center
10:47PM 55.7833 -132.3333 147° Southeast 500 575 41,000  Level Anchorage Center
10:48PM 55.6667 -132.2000 147° Southeast 500 575 41,000  Level Anchorage Center
10:49PM 55.5500 -132.0833 150° Southeast 500 575 41,000  Level Anchorage Center
10:50PM 55.4000 -131.9333 150° Southeast 500 575 41,000  Level Anchorage Center
10:51PM 55.2833 -131.8167 150° Southeast 490 564 41,000  Level Anchorage Center
10:52PM 55.1667 -131.6833 147° Southeast 500 575 41,000  Level Anchorage Center
10:53PM 55.0500 -131.5667 150° Southeast 500 575 41,000  Level Anchorage Center
10:54PM 54.9333 -131.4333 147° Southeast 490 564 41,000  Level Anchorage Center
10:55PM 54.8500 -131.3667 155° Southeast 490 564 41,000  Level Vancouver Center
10:56PM 54.7500 -131.2333 142° Southeast 480 552 41,000  Level Vancouver Center
10:57PM 54.6333 -131.1000 146° Southeast 480 552 41,000  Level Vancouver Center
10:58PM 54.5167 -130.9833 150° Southeast 490 564 41,000  Level Vancouver Center
10:59PM 54.4167 -130.8333 139° Southeast 490 564 41,000  Level Vancouver Center
11:00PM 54.3000 -130.7000 146° Southeast 490 564 41,000  Level Vancouver Center
11:01PM 54.2000 -130.5667 142° Southeast 480 552 41,000  Level Vancouver Center
11:02PM 54.0833 -130.4667 153° Southeast 470 541 41,000  Level Vancouver Center
11:03PM 53.9667 -130.3333 146° Southeast 480 552 41,000  Level Vancouver Center
11:04PM 53.8667 -130.2000 142° Southeast 480 552 41,000  Level Vancouver Center
11:05PM 53.7500 -130.0667 146° Southeast 480 552 41,000  Level Vancouver Center
11:06PM 53.6500 -129.9333 142° Southeast 480 552 41,000  Level Vancouver Center
11:07PM 53.5333 -129.8167 149° Southeast 480 552 41,000  Level Vancouver Center
11:08PM 53.4167 -129.6833 146° Southeast 490 564 41,000  Level Vancouver Center
11:09PM 53.3167 -129.5500 141° Southeast 490 564 41,000  Level Vancouver Center
11:10PM 53.2000 -129.4333 149° Southeast 480 552 41,000  Level Vancouver Center
11:11PM 53.0833 -129.3000 146° Southeast 480 552 41,000  Level Vancouver Center
11:12PM 52.9833 -129.1833 145° Southeast 490 564 41,000  Level Vancouver Center
11:13PM 52.8667 -129.0500 145° Southeast 490 564 41,000  Level Vancouver Center
11:14PM 52.7500 -128.9333 149° Southeast 490 564 41,000  Level Vancouver Center
11:15PM 52.6167 -128.8000 149° Southeast 500 575 41,000  Level Vancouver Center
11:16PM 52.5333 -128.7167 149° Southeast 490 564 41,000  Level Vancouver Center
11:17PM 52.4000 -128.5667 146° Southeast 490 564 41,000  Level Vancouver Center
11:18PM 52.2833 -128.4667 152° Southeast 480 552 41,000  Level Vancouver Center
11:19PM 52.1833 -128.3167 137° Southeast 490 564 41,000  Level Vancouver Center
11:20PM 52.0667 -128.2333 156° South 490 564 41,000  Level Vancouver Center
11:21PM 51.9500 -128.1000 145° Southeast 490 564 41,000  Level Vancouver Center
11:22PM 51.8333 -127.9833 148° Southeast 490 564 41,000  Level Vancouver Center
11:23PM 51.7167 -127.8667 148° Southeast 480 552 41,000  Level Vancouver Center
11:24PM 51.6167 -127.7500 144° Southeast 480 552 41,000  Level Vancouver Center
11:25PM 51.5000 -127.6333 148° Southeast 490 564 41,000  Level Vancouver Center
11:26PM 51.3833 -127.5167 148° Southeast 480 552 41,000  Level Vancouver Center
11:27PM 51.2667 -127.4000 148° Southeast 480 552 41,000  Level Vancouver Center
11:28PM 51.1500 -127.2833 148° Southeast 480 552 41,000  Level Vancouver Center
11:29PM 51.0500 -127.1667 144° Southeast 480 552 41,000  Level Vancouver Center
11:30PM 50.9333 -127.0500 148° Southeast 480 552 41,000  Level Vancouver Center
11:31PM 50.8167 -126.9500 152° Southeast 480 552 41,000  Level Vancouver Center
11:32PM 50.7000 -126.8500 151° Southeast 480 552 41,000  Level Vancouver Center
11:33PM 50.5833 -126.7167 144° Southeast 480 552 41,000  Level Vancouver Center
11:34PM 50.4667 -126.6333 156° South 480 552 41,000  Level Vancouver Center
11:35PM 50.3667 -126.5167 143° Southeast 480 552 41,000  Level Vancouver Center
11:36PM 50.2500 -126.4167 151° Southeast 490 564 41,000  Level Vancouver Center
11:37PM 50.1333 -126.3000 147° Southeast 480 552 41,000  Level Vancouver Center
11:38PM 50.0167 -126.1833 147° Southeast 480 552 41,000  Level Vancouver Center
11:39PM 49.9000 -126.0833 151° Southeast 480 552 41,000  Level Vancouver Center
11:40PM 49.7833 -125.9667 147° Southeast 480 552 41,000  Level Vancouver Center
11:41PM 49.6667 -125.8667 151° Southeast 480 552 41,000  Level Vancouver Center
11:42PM 49.5500 -125.7500 147° Southeast 490 564 41,000  Level Vancouver Center
11:43PM 49.4333 -125.6500 151° Southeast 480 552 41,000  Level Vancouver Center
11:44PM 49.3333 -125.5333 143° Southeast 480 552 41,000  Level Vancouver Center
11:45PM 49.2167 -125.4667 160° South 480 552 41,000  Level Vancouver Center
11:46PM 49.1000 -125.3500 147° Southeast 480 552 41,000  Level Vancouver Center
11:47PM 48.9833 -125.2500 151° Southeast 480 552 41,000  Level Vancouver Center
11:48PM 48.8667 -125.1500 151° Southeast 480 552 41,000  Level Vancouver Center
11:49PM 48.7500 -125.0333 147° Southeast 480 552 41,000  Level Vancouver Center
11:50PM 48.6333 -124.9333 150° Southeast 480 552 41,000  Level Vancouver Center
11:51PM 48.5167 -124.8333 150° Southeast 490 564 41,000  Level Vancouver Center
11:52PM 48.4000 -124.7333 150° Southeast 490 564 41,000  Level Vancouver Center
11:53PM 48.2833 -124.6333 150° Southeast 480 552 41,000  Level Vancouver Center
11:53PM 48.2194 -124.5964 159° South 493 567 41,000  Level Seattle Center
11:54PM 48.0914 -124.5519 167° South 481 554 41,000  Level Seattle Center
11:55PM 47.9608 -124.5192 170° South 476 548 41,000  Level Seattle Center
11:56PM 47.8314 -124.4869 171° South 474 545 41,000  Level Seattle Center
11:57PM 47.7028 -124.4525 170° South 472 543 41,000  Level Seattle Center
11:58PM 47.5736 -124.4181 170° South 473 544 41,000  Level Seattle Center
11:59PM 47.4442 -124.3842 170° South 473 544 41,000  Level Seattle Center
12:00AM 47.3164 -124.3492 169° South 470 541 41,000  Level Seattle Center
12:01AM 47.1883 -124.3169 170° South 469 540 41,000  Level Seattle Center
12:02AM 47.0356 -124.2769 170° South 467 537 41,000  Level Seattle Center
12:03AM 46.9083 -124.2464 171° South 465 535 41,000  Level Seattle Center
12:04AM 46.7825 -124.2111 169° South 463 533 41,000  Level Seattle Center
12:05AM 46.6558 -124.1789 170° South 463 533 41,000  Level Seattle Center
12:06AM 46.5292 -124.1478 170° South 462 532 41,000  Level Seattle Center
12:07AM 46.4000 -124.1150 170° South 465 535 41,000  Level Seattle Center
12:08AM 46.2722 -124.0836 170° South 467 537 41,000  Level Seattle Center
12:09AM 46.1450 -124.0500 170° South 466 536 41,000  Level Seattle Center
12:10AM 46.0175 -124.0225 171° South 466 536 41,000  Level Seattle Center
12:11AM 45.8906 -123.9906 170° South 466 536 41,000  Level Seattle Center
12:12AM 45.7628 -123.9575 170° South 467 537 41,000  Level Seattle Center
12:13AM 45.6347 -123.9278 171° South 468 539 41,000  Level Seattle Center
12:14AM 45.5064 -123.8958 170° South 470 541 41,000  Level Seattle Center
12:15AM 45.3797 -123.8642 170° South 467 537 41,000  Level Seattle Center
12:16AM 45.2539 -123.8333 170° South 463 533 41,000  Level Seattle Center
12:18AM 45.1281 -123.8047 171° South 463 533 41,000  Level Seattle Center
12:19AM 44.9764 -123.7697 171° South 467 537 41,000  Level Seattle Center
12:20AM 44.8503 -123.7389 170° South 471 542 41,000  Level Seattle Center
12:21AM 44.7247 -123.7078 170° South 471 542 41,000  Level Seattle Center
12:22AM 44.5997 -123.6772 170° South 462 532 41,000  Level Seattle Center
12:23AM 44.4717 -123.6472 171° South 464 534 41,000  Level Seattle Center
12:24AM 44.3469 -123.6167 170° South 463 533 41,000  Level Seattle Center
12:25AM 44.2200 -123.5928 172° South 460 529 41,000  Level Seattle Center
12:26AM 44.0931 -123.5636 171° South 466 536 41,000  Level Seattle Center
12:27AM 43.9531 -123.5289 170° South 464 534 41,000  Level Seattle Center
12:28AM 43.8267 -123.4989 170° South 464 534 41,000  Level Seattle Center
12:29AM 43.7017 -123.4683 170° South 460 529 41,000  Level Seattle Center
12:30AM 43.5767 -123.4406 171° South 457 526 41,000  Level Seattle Center
12:31AM 43.4514 -123.4131 171° South 456 525 41,000  Level Seattle Center
12:32AM 43.3264 -123.3847 171° South 457 526 41,000  Level Seattle Center
12:33AM 43.2017 -123.3564 171° South 455 524 41,000  Level Seattle Center
12:34AM 43.0800 -123.3886 191° South 447 514 41,000  Level Seattle Center
12:35AM 42.9575 -123.4047 185° South 445 512 41,000  Level Seattle Center
12:36AM 42.8086 -123.3833 174° South 446 513 41,000  Level Seattle Center
12:37AM 42.7058 -123.3728 176° South 443 510 41,000  Level Seattle Center
12:38AM 42.5814 -123.3581 175° South 448 516 41,000  Level Seattle Center
12:39AM 42.4333 -123.3411 175° South 448 516 41,000  Level Seattle Center
12:40AM 42.3108 -123.3250 174° South 446 513 41,000  Level Seattle Center
12:41AM 42.1883 -123.3111 175° South 444 511 41,000  Level Seattle Center
12:42AM 42.0658 -123.2967 175° South 444 511 41,000  Level Seattle Center
12:43AM 41.9439 -123.2839 176° South 444 511 41,000  Level Seattle Center
12:44AM 41.8214 -123.2692 175° South 443 510 41,000  Level Seattle Center
12:45AM 41.6994 -123.2542 175° South 442 509 41,000  Level Seattle Center
12:46AM 41.5822 -123.2436 176° South 425 489 41,000  Level Seattle Center
12:47AM 41.4614 -123.2297 175° South 434 499 41,000  Level Seattle Center
12:48AM 41.3256 -123.2153 175° South 438 504 41,000  Level Seattle Center
12:49AM 41.2056 -123.2028 176° South 434 499 41,000  Level Seattle Center
12:50AM 41.0864 -123.1886 175° South 430 495 41,000  Level Seattle Center
12:51AM 40.9664 -123.1756 175° South 432 497 41,000  Level Seattle Center
12:52AM 40.8444 -123.1622 175° South 435 501 41,000  Level Seattle Center
12:53AM 40.7350 -123.1492 175° South 432 497 41,000  Level Seattle Center
12:54AM 40.6169 -123.1372 176° South 429 494 41,000  Level Seattle Center
12:55AM 40.4986 -123.1247 175° South 429 494 41,000  Level Seattle Center
12:56AM 40.3806 -123.1117 175° South 429 494 41,000  Level Seattle Center
12:56AM 40.3081 -123.1039 175° South 428 493 41,000  Level Oakland Center
12:57AM 40.1906 -123.0925 176° South 426 490 41,000  Level Oakland Center
12:58AM 40.0731 -123.0797 175° South 427 491 41,000  Level Oakland Center
12:59AM 39.9553 -123.0669 175° South 426 490 41,000  Level Oakland Center
01:01AM 39.8367 -123.0539 175° South 429 494 41,000  Level Oakland Center
01:02AM 39.7186 -123.0383 174° South 431 496 41,000 -180 Level Oakland Center
01:03AM 39.5744 -123.0069 170° South 438 504 40,700 -900 Descending Oakland Center
01:04AM 39.4556 -122.9817 171° South 430 495 39,200 -1,380 Descending Oakland Center
01:05AM 39.3594 -122.9594 170° South 426 490 37,900 -1,560 Descending Oakland Center
01:06AM 39.2147 -122.9311 171° South 439 505 36,100 -1,620 Descending Oakland Center
01:07AM 39.0939 -122.9058 171° South 440 506 34,700 -1,440 Descending Oakland Center
01:08AM 38.9703 -122.8819 171° South 447 514 33,200 -1,500 Descending Oakland Center
01:09AM 38.8461 -122.8564 171° South 453 521 31,700 -1,680 Descending Oakland Center
01:10AM 38.7183 -122.8342 172° South 462 532 29,800 -1,980 Descending Oakland Center
01:11AM 38.5975 -122.8103 171° South 446 513 27,700 -2,040 Descending Oakland Center
01:12AM 38.4761 -122.7861 171° South 445 512 25,700 -1,920 Descending Oakland Center
01:13AM 38.3606 -122.7636 171° South 426 490 23,800 -1,920 Descending Oakland Center
01:14AM 38.2475 -122.7411 171° South 414 476 21,900 -1,920 Descending Oakland Center
01:15AM 38.1369 -122.7197 171° South 406 467 20,000 -1,860 Descending Oakland Center
01:16AM 38.0272 -122.6983 171° South 400 460 18,200 -1,860 Descending Oakland Center
01:17AM 37.9019 -122.6744 171° South 395 455 16,300 -1,800 Descending Oakland Center
01:18AM 37.8217 -122.5914 141° Southeast 387 445 14,600 -1,740 Descending Oakland Center
01:19AM 37.7453 -122.5086 139° Southeast 371 427 12,900 -1,320 Descending Oakland Center
01:20AM 37.6706 -122.4283 140° Southeast 358 412 12,000 -420 Descending Oakland Center
01:21AM 37.6000 -122.3500 139° Southeast 312 359 12,100 -480 Climbing Northern Cal TRACON
01:22AM 37.5333 -122.3167 158° South 292 336 11,100 -1,080 Descending Northern Cal TRACON
01:23AM 37.4500 -122.2667 155° Southeast 285 328 9,900 -1,080 Descending Northern Cal TRACON
01:24AM 37.3667 -122.2167 155° Southeast 285 328 8,900 -1,260 Descending Northern Cal TRACON
01:25AM 37.3347 -122.1475 120° Southeast 294 338 7,400 -1,440 Descending Oakland Center
01:26AM 37.2814 -122.0497 124° Southeast 286 329 6,000 -1,020 Descending Oakland Center
01:27AM 37.2400 -121.9744 125° Southeast 270 311 5,400 -600 Descending Oakland Center
01:28AM 37.2556 -121.9122 73° East 218 251 4,900 -1,260 Descending Oakland Center
01:29AM 37.2833 -121.8667 53° Northeast 171 197 3,000 -2,040 Descending Northern Cal TRACON
01:30AM 37.3333 -121.9000 332° Northwest 154 177 1,000 -1,380 Descending Northern Cal TRACON
01:31AM 37.3553 -121.9228 320° Northwest 145 167 100 -840 Descending Oakland Center